createdAt,value
2022-08-21T00:02:02.189Z,100.00
2022-08-21T00:04:29.479Z,100.00
2022-08-21T00:06:57.651Z,100.00
2022-08-21T00:09:24.133Z,100.00
2022-08-21T00:11:50.591Z,100.00
2022-08-21T00:14:17.316Z,100.00
2022-08-21T00:16:43.980Z,100.00
2022-08-21T00:19:10.477Z,100.00
2022-08-21T00:21:37.296Z,100.00
2022-08-21T00:24:05.197Z,100.00
2022-08-21T00:26:31.788Z,100.00
2022-08-21T00:28:58.920Z,100.00
2022-08-21T00:31:25.910Z,100.00
2022-08-21T00:33:52.624Z,100.00
2022-08-21T00:36:25.913Z,100.00
2022-08-21T00:38:52.411Z,100.00
2022-08-21T00:41:38.591Z,100.00
2022-08-21T00:44:08.576Z,100.00
2022-08-21T00:46:36.638Z,100.00
2022-08-21T00:49:05.016Z,100.00
2022-08-21T00:51:40.835Z,100.00
2022-08-21T00:54:13.633Z,100.00
2022-08-21T00:56:51.267Z,100.00
2022-08-21T00:59:20.133Z,100.00
2022-08-21T01:01:47.211Z,100.00
2022-08-21T01:04:14.135Z,100.00
2022-08-21T01:06:40.575Z,100.00
2022-08-21T01:09:07.163Z,100.00
2022-08-21T01:11:33.727Z,100.00
2022-08-21T01:14:00.878Z,100.00
2022-08-21T01:16:27.620Z,100.00
2022-08-21T01:18:54.123Z,100.00
2022-08-21T01:21:27.973Z,100.00
2022-08-21T01:23:56.344Z,100.00
2022-08-21T01:26:31.145Z,100.00
2022-08-21T01:29:15.588Z,100.00
2022-08-21T01:31:42.372Z,100.00
2022-08-21T01:34:09.621Z,100.00
2022-08-21T01:36:36.199Z,100.00
2022-08-21T01:39:05.020Z,100.00
2022-08-21T01:41:31.561Z,100.00
2022-08-21T01:43:58.066Z,100.00
2022-08-21T01:46:24.545Z,100.00
2022-08-21T01:48:51.139Z,100.00
2022-08-21T01:51:17.963Z,100.00
2022-08-21T01:53:44.463Z,100.00
2022-08-21T01:56:13.709Z,100.00
2022-08-21T01:58:42.040Z,100.00
2022-08-21T02:01:08.710Z,100.00
2022-08-21T02:03:36.333Z,100.00
2022-08-21T02:06:07.901Z,100.00
2022-08-21T02:08:35.292Z,100.00
2022-08-21T02:11:02.230Z,100.00
2022-08-21T02:13:28.894Z,100.00
2022-08-21T02:15:55.409Z,100.00
2022-08-21T02:18:21.943Z,100.00
2022-08-21T02:20:55.812Z,100.00
2022-08-21T02:23:27.337Z,100.00
2022-08-21T02:25:57.332Z,100.00
2022-08-21T02:28:23.930Z,100.00
2022-08-21T02:30:52.334Z,100.00
2022-08-21T02:33:19.652Z,100.00
2022-08-21T02:35:47.686Z,100.00
2022-08-21T02:38:21.223Z,100.00
2022-08-21T02:40:51.044Z,100.00
2022-08-21T02:43:19.657Z,100.00
2022-08-21T02:45:47.260Z,100.00
2022-08-21T02:48:17.061Z,100.00
2022-08-21T02:50:47.562Z,100.00
2022-08-21T02:53:17.296Z,100.00
2022-08-21T02:55:48.340Z,100.00
2022-08-21T02:58:17.739Z,100.00
2022-08-21T03:00:44.943Z,100.00
2022-08-21T03:03:12.360Z,100.00
2022-08-21T03:05:39.228Z,100.00
2022-08-21T03:08:11.334Z,100.00
2022-08-21T03:10:40.702Z,100.00
2022-08-21T03:13:07.741Z,100.00
2022-08-21T03:15:34.519Z,100.00
2022-08-21T03:18:02.239Z,100.00
2022-08-21T03:20:29.737Z,100.00
2022-08-21T03:22:56.396Z,100.00
2022-08-21T03:25:39.481Z,100.00
2022-08-21T03:28:10.586Z,100.00
2022-08-21T03:30:39.928Z,100.00
2022-08-21T03:33:06.379Z,100.00
2022-08-21T03:35:32.840Z,100.00
2022-08-21T03:37:59.610Z,100.00
2022-08-21T03:40:26.237Z,100.00
2022-08-21T03:42:52.880Z,100.00
2022-08-21T03:45:20.164Z,100.00
2022-08-21T03:47:56.686Z,100.00
2022-08-21T03:50:25.516Z,100.00
2022-08-21T03:52:52.544Z,100.00
2022-08-21T03:55:19.237Z,100.00
2022-08-21T03:57:45.807Z,100.00
2022-08-21T04:00:14.809Z,100.00
2022-08-21T04:02:43.078Z,100.00
2022-08-21T04:05:10.751Z,100.00
2022-08-21T04:07:37.308Z,100.00
2022-08-21T04:10:07.402Z,100.00
2022-08-21T04:12:34.030Z,100.00
2022-08-21T04:15:02.672Z,100.00
2022-08-21T04:17:29.203Z,100.00
2022-08-21T04:19:55.996Z,100.00
2022-08-21T04:22:23.274Z,100.00
2022-08-21T04:24:50.796Z,100.00
2022-08-21T04:27:17.307Z,100.00
2022-08-21T04:29:43.808Z,100.00
2022-08-21T04:32:10.353Z,100.00
2022-08-21T04:34:37.340Z,100.00
2022-08-21T04:37:04.130Z,100.00
2022-08-21T04:39:30.599Z,100.00
2022-08-21T04:41:57.678Z,100.00
2022-08-21T04:44:24.477Z,100.00
2022-08-21T04:46:50.969Z,100.00
2022-08-21T04:49:18.500Z,100.00
2022-08-21T04:51:45.211Z,100.00
2022-08-21T04:54:17.975Z,100.00
2022-08-21T04:56:54.570Z,100.00
2022-08-21T04:59:31.390Z,100.00
2022-08-21T05:01:58.969Z,100.00
2022-08-21T05:04:31.100Z,100.00
2022-08-21T05:07:01.168Z,100.00
2022-08-21T05:09:28.210Z,100.00
2022-08-21T05:11:55.873Z,100.00
2022-08-21T05:14:22.602Z,100.00
2022-08-21T05:16:49.076Z,100.00
2022-08-21T05:19:15.810Z,100.00
2022-08-21T05:21:45.434Z,100.00
2022-08-21T05:24:12.520Z,100.00
2022-08-21T05:26:46.017Z,100.00
2022-08-21T05:29:14.817Z,100.00
2022-08-21T05:31:41.894Z,100.00
2022-08-21T05:34:09.055Z,100.00
2022-08-21T05:36:35.887Z,100.00
2022-08-21T05:39:03.099Z,100.00
2022-08-21T05:41:29.602Z,100.00
2022-08-21T05:43:56.187Z,100.00
2022-08-21T05:46:22.786Z,100.00
2022-08-21T05:48:49.770Z,100.00
2022-08-21T05:51:17.002Z,100.00
2022-08-21T05:53:44.693Z,100.00
2022-08-21T05:56:13.360Z,100.00
2022-08-21T05:58:41.832Z,100.00
2022-08-21T06:01:09.920Z,100.00
2022-08-21T06:03:39.625Z,100.00
2022-08-21T06:06:06.419Z,100.00
2022-08-21T06:08:33.192Z,100.00
2022-08-21T06:11:01.497Z,100.00
2022-08-21T06:13:28.979Z,100.00
2022-08-21T06:16:15.628Z,100.00
2022-08-21T06:18:43.751Z,100.00
2022-08-21T06:21:10.378Z,100.00
2022-08-21T06:23:36.852Z,100.00
2022-08-21T06:26:05.576Z,100.00
2022-08-21T06:28:33.172Z,100.00
2022-08-21T06:30:59.714Z,100.00
2022-08-21T06:33:29.304Z,100.00
2022-08-21T06:35:58.874Z,100.00
2022-08-21T06:38:25.362Z,100.00
2022-08-21T06:40:51.817Z,100.00
2022-08-21T06:43:18.887Z,100.00
2022-08-21T06:45:46.089Z,100.00
2022-08-21T06:48:18.380Z,100.00
2022-08-21T06:50:46.189Z,100.00
2022-08-21T06:53:14.817Z,100.00
2022-08-21T06:55:43.009Z,100.00
2022-08-21T06:58:10.966Z,100.00
2022-08-21T07:00:41.826Z,100.00
2022-08-21T07:03:08.252Z,100.00
2022-08-21T07:05:34.855Z,100.00
2022-08-21T07:08:01.477Z,100.00
2022-08-21T07:10:28.419Z,100.00
2022-08-21T07:13:00.425Z,100.00
2022-08-21T07:15:31.448Z,100.00
2022-08-21T07:18:01.427Z,100.00
2022-08-21T07:20:29.597Z,100.00
2022-08-21T07:23:00.508Z,100.00
2022-08-21T07:25:27.721Z,100.00
2022-08-21T07:27:54.292Z,100.00
2022-08-21T07:30:20.895Z,100.00
2022-08-21T07:32:50.105Z,100.00
2022-08-21T07:35:18.406Z,100.00
2022-08-21T07:37:44.895Z,100.00
2022-08-21T07:40:11.910Z,100.00
2022-08-21T07:42:43.283Z,100.00
2022-08-21T07:45:11.049Z,100.00
2022-08-21T07:47:42.706Z,100.00
2022-08-21T07:50:12.070Z,100.00
2022-08-21T07:52:39.183Z,100.00
2022-08-21T07:55:06.869Z,100.00
2022-08-21T07:57:33.708Z,100.00
2022-08-21T08:00:00.333Z,100.00
2022-08-21T08:02:29.650Z,100.00
2022-08-21T08:05:01.888Z,100.00
2022-08-21T08:07:28.477Z,100.00
2022-08-21T08:09:55.010Z,100.00
2022-08-21T08:12:21.653Z,100.00
2022-08-21T08:14:48.174Z,100.00
2022-08-21T08:17:14.743Z,100.00
2022-08-21T08:19:41.225Z,100.00
2022-08-21T08:22:20.194Z,100.00
2022-08-21T08:24:47.946Z,100.00
2022-08-21T08:27:14.555Z,100.00
2022-08-21T08:29:41.185Z,100.00
2022-08-21T08:32:10.699Z,100.00
2022-08-21T08:34:38.813Z,100.00
2022-08-21T08:37:07.339Z,100.00
2022-08-21T08:39:35.225Z,96.90
2022-08-21T08:42:32.262Z,97.34
2022-08-21T08:44:59.395Z,96.73
2022-08-21T08:47:28.293Z,95.38
2022-08-21T08:50:04.424Z,96.71
2022-08-21T08:52:46.380Z,96.00
2022-08-21T08:55:25.349Z,94.13
2022-08-21T08:57:55.991Z,92.99
2022-08-21T09:00:23.556Z,93.11
2022-08-21T09:02:54.316Z,93.09
2022-08-21T09:05:28.598Z,91.13
2022-08-21T09:08:01.548Z,90.76
2022-08-21T09:10:48.922Z,90.08
2022-08-21T09:13:35.355Z,88.66
2022-08-21T09:16:29.768Z,88.89
2022-08-21T09:19:44.270Z,89.52
2022-08-21T09:22:24.461Z,90.49
2022-08-21T09:25:13.113Z,90.00
2022-08-21T09:27:40.632Z,87.36
2022-08-21T09:30:07.870Z,89.56
2022-08-21T09:32:38.014Z,88.71
2022-08-21T09:35:20.972Z,83.07
2022-08-21T09:38:16.655Z,86.95
2022-08-21T09:40:46.303Z,85.58
2022-08-21T09:43:12.721Z,86.17
2022-08-21T09:45:41.022Z,85.65
2022-08-21T09:48:26.988Z,84.14
2022-08-21T09:51:15.541Z,83.77
2022-08-21T09:53:53.345Z,85.28
2022-08-21T09:57:10.292Z,79.39
2022-08-21T09:59:38.217Z,83.44
2022-08-21T10:02:28.982Z,80.27
2022-08-21T10:05:16.749Z,80.28
2022-08-21T10:07:43.332Z,79.71
2022-08-21T10:10:19.334Z,76.13
2022-08-21T10:13:16.579Z,75.78
2022-08-21T10:15:46.350Z,75.88
2022-08-21T10:18:54.720Z,78.74
2022-08-21T10:21:27.713Z,76.30
2022-08-21T10:24:30.504Z,72.25
2022-08-21T10:27:19.847Z,73.48
2022-08-21T10:30:05.017Z,74.26
2022-08-21T10:32:48.650Z,71.83
2022-08-21T10:35:26.593Z,72.85
2022-08-21T10:38:02.712Z,71.55
2022-08-21T10:40:41.666Z,75.20
2022-08-21T10:43:30.661Z,75.72
2022-08-21T10:46:01.288Z,76.15
2022-08-21T10:48:38.338Z,73.45
2022-08-21T10:51:29.015Z,73.67
2022-08-21T10:54:23.506Z,73.42
2022-08-21T10:56:56.850Z,70.78
2022-08-21T10:59:38.570Z,70.99
2022-08-21T11:02:11.133Z,70.77
2022-08-21T11:04:53.796Z,70.00
2022-08-21T11:07:34.287Z,68.11
2022-08-21T11:10:28.227Z,67.41
2022-08-21T11:13:00.206Z,68.61
2022-08-21T11:15:35.725Z,67.62
2022-08-21T11:18:24.431Z,66.75
2022-08-21T11:21:25.035Z,68.22
2022-08-21T11:24:04.749Z,68.44
2022-08-21T11:26:38.246Z,68.83
2022-08-21T11:29:30.316Z,65.01
2022-08-21T11:32:22.384Z,66.34
2022-08-21T11:35:00.924Z,65.38
2022-08-21T11:37:39.457Z,66.82
2022-08-21T11:40:12.031Z,64.74
2022-08-21T11:42:53.485Z,64.79
2022-08-21T11:45:32.497Z,65.44
2022-08-21T11:48:08.078Z,65.34
2022-08-21T11:50:39.037Z,64.41
2022-08-21T11:53:22.370Z,64.98
2022-08-21T11:55:56.161Z,66.96
2022-08-21T11:58:32.217Z,62.11
2022-08-21T12:01:08.272Z,61.52
2022-08-21T12:03:42.886Z,63.98
2022-08-21T12:06:13.428Z,65.79
2022-08-21T12:08:43.499Z,64.13
2022-08-21T12:11:18.816Z,62.89
2022-08-21T12:13:58.321Z,64.23
2022-08-21T12:16:34.614Z,64.86
2022-08-21T12:19:29.085Z,58.96
2022-08-21T12:22:12.717Z,59.50
2022-08-21T12:24:42.592Z,61.91
2022-08-21T12:27:18.221Z,62.35
2022-08-21T12:29:51.453Z,60.94
2022-08-21T12:32:17.857Z,59.95
2022-08-21T12:34:51.624Z,62.23
2022-08-21T12:37:40.806Z,58.48
2022-08-21T12:40:24.094Z,59.79
2022-08-21T12:42:58.833Z,59.24
2022-08-21T12:45:35.509Z,58.89
2022-08-21T12:48:16.814Z,57.85
2022-08-21T12:50:51.134Z,58.01
2022-08-21T12:53:21.018Z,58.14
2022-08-21T12:55:48.373Z,60.15
2022-08-21T12:58:22.937Z,59.25
2022-08-21T13:00:58.017Z,60.03
2022-08-21T13:03:25.340Z,59.60
2022-08-21T13:05:52.898Z,59.49
2022-08-21T13:08:22.210Z,59.23
2022-08-21T13:10:57.357Z,60.31
2022-08-21T13:13:28.329Z,58.68
2022-08-21T13:16:06.132Z,58.67
2022-08-21T13:18:52.804Z,59.09
2022-08-21T13:21:21.308Z,58.35
2022-08-21T13:23:49.335Z,58.53
2022-08-21T13:26:22.533Z,59.35
2022-08-21T13:28:50.871Z,60.35
2022-08-21T13:31:22.058Z,59.62
2022-08-21T13:33:50.291Z,58.91
2022-08-21T13:36:27.350Z,57.94
2022-08-21T13:38:55.172Z,58.64
2022-08-21T13:41:26.902Z,58.48
2022-08-21T13:44:20.924Z,57.76
2022-08-21T13:46:49.512Z,57.85
2022-08-21T13:49:19.225Z,57.73
2022-08-21T13:51:47.584Z,57.89
2022-08-21T13:54:16.689Z,57.09
2022-08-21T13:56:46.544Z,56.00
2022-08-21T13:59:23.869Z,55.38
2022-08-21T14:01:58.138Z,55.92
2022-08-21T14:04:32.809Z,54.37
2022-08-21T14:06:59.877Z,52.29
2022-08-21T14:09:32.124Z,53.54
2022-08-21T14:12:02.637Z,54.47
2022-08-21T14:14:36.268Z,51.88
2022-08-21T14:17:23.989Z,54.43
2022-08-21T14:19:51.779Z,56.71
2022-08-21T14:22:29.598Z,49.81
2022-08-21T14:25:07.211Z,50.77
2022-08-21T14:27:37.336Z,51.32
2022-08-21T14:30:10.652Z,49.68
2022-08-21T14:32:44.348Z,50.75
2022-08-21T14:35:13.500Z,50.36
2022-08-21T14:37:43.362Z,51.69
2022-08-21T14:40:10.693Z,51.71
2022-08-21T14:42:38.129Z,50.20
2022-08-21T14:45:30.796Z,49.34
2022-08-21T14:47:58.978Z,48.17
2022-08-21T14:50:27.980Z,48.60
2022-08-21T14:52:55.664Z,47.85
2022-08-21T14:55:22.289Z,48.09
2022-08-21T14:57:52.040Z,48.02
2022-08-21T15:00:23.037Z,47.60
2022-08-21T15:02:53.582Z,44.28
2022-08-21T15:05:31.395Z,45.47
2022-08-21T15:07:58.209Z,42.63
2022-08-21T15:10:24.876Z,43.52
2022-08-21T15:12:51.408Z,44.68
2022-08-21T15:15:17.943Z,43.55
2022-08-21T15:17:48.143Z,44.00
2022-08-21T15:20:15.170Z,42.05
2022-08-21T15:22:41.694Z,43.47
2022-08-21T15:25:14.339Z,45.49
2022-08-21T15:27:40.928Z,46.26
2022-08-21T15:30:08.057Z,46.84
2022-08-21T15:32:34.593Z,46.20
2022-08-21T15:35:01.220Z,45.92
2022-08-21T15:37:27.878Z,45.05
2022-08-21T15:39:55.317Z,45.06
2022-08-21T15:42:22.579Z,46.53
2022-08-21T15:44:49.557Z,46.53
2022-08-21T15:47:19.966Z,45.81
2022-08-21T15:49:46.497Z,46.44
2022-08-21T15:52:17.815Z,46.13
2022-08-21T15:54:44.399Z,45.37
2022-08-21T15:57:14.170Z,45.90
2022-08-21T15:59:43.203Z,47.87
2022-08-21T16:02:32.236Z,47.05
2022-08-21T16:04:59.327Z,46.82
2022-08-21T16:07:25.993Z,45.89
2022-08-21T16:09:52.607Z,46.23
2022-08-21T16:12:29.285Z,45.46
2022-08-21T16:14:55.825Z,44.90
2022-08-21T16:17:28.545Z,45.42
2022-08-21T16:19:55.526Z,47.41
2022-08-21T16:22:22.007Z,46.89
2022-08-21T16:24:48.545Z,47.35
2022-08-21T16:27:15.180Z,46.65
2022-08-21T16:29:44.170Z,46.00
2022-08-21T16:32:10.691Z,45.23
2022-08-21T16:34:40.185Z,47.34
2022-08-21T16:37:06.713Z,46.40
2022-08-21T16:39:33.380Z,47.51
2022-08-21T16:42:00.265Z,48.67
2022-08-21T16:44:26.853Z,48.76
2022-08-21T16:46:56.697Z,48.50
2022-08-21T16:49:23.329Z,48.47
2022-08-21T16:51:50.010Z,47.85
2022-08-21T16:54:16.537Z,47.98
2022-08-21T16:56:47.466Z,49.44
2022-08-21T16:59:14.326Z,49.47
2022-08-21T17:01:42.683Z,50.03
2022-08-21T17:04:09.247Z,50.20
2022-08-21T17:06:35.997Z,50.94
2022-08-21T17:09:02.488Z,48.31
2022-08-21T17:11:39.110Z,48.13
2022-08-21T17:14:22.039Z,48.29
2022-08-21T17:16:51.977Z,48.78
2022-08-21T17:19:19.606Z,49.08
2022-08-21T17:21:46.577Z,50.59
2022-08-21T17:24:15.428Z,52.16
2022-08-21T17:26:43.881Z,52.53
2022-08-21T17:29:14.328Z,51.67
2022-08-21T17:31:42.546Z,51.12
2022-08-21T17:34:10.158Z,52.07
2022-08-21T17:36:37.073Z,53.12
2022-08-21T17:39:04.869Z,53.38
2022-08-21T17:41:31.469Z,53.53
2022-08-21T17:44:03.183Z,54.05
2022-08-21T17:46:30.113Z,54.80
2022-08-21T17:48:58.106Z,54.99
2022-08-21T17:51:25.079Z,55.19
2022-08-21T17:53:51.564Z,55.57
2022-08-21T17:56:19.476Z,55.87
2022-08-21T17:58:50.034Z,56.83
2022-08-21T18:01:17.826Z,57.22
2022-08-21T18:03:46.980Z,58.61
2022-08-21T18:06:17.464Z,59.76
2022-08-21T18:08:44.598Z,60.38
2022-08-21T18:11:11.286Z,61.78
2022-08-21T18:13:50.191Z,62.24
2022-08-21T18:16:19.363Z,62.00
2022-08-21T18:18:48.839Z,62.63
2022-08-21T18:21:15.953Z,64.43
2022-08-21T18:23:44.118Z,65.31
2022-08-21T18:26:14.930Z,63.48
2022-08-21T18:28:41.861Z,63.25
2022-08-21T18:31:10.804Z,63.65
2022-08-21T18:33:39.340Z,63.90
2022-08-21T18:36:10.157Z,64.65
2022-08-21T18:38:37.884Z,64.60
2022-08-21T18:41:07.341Z,64.88
2022-08-21T18:43:37.105Z,64.21
2022-08-21T18:46:04.176Z,64.40
2022-08-21T18:48:31.324Z,65.54
2022-08-21T18:50:58.916Z,67.17
2022-08-21T18:53:27.962Z,69.04
2022-08-21T18:55:56.985Z,70.38
2022-08-21T18:58:25.105Z,72.33
2022-08-21T19:00:52.648Z,72.91
2022-08-21T19:03:23.752Z,73.41
2022-08-21T19:05:52.582Z,72.65
2022-08-21T19:08:21.931Z,73.30
2022-08-21T19:10:51.308Z,72.98
2022-08-21T19:13:21.432Z,73.27
2022-08-21T19:15:52.612Z,73.60
2022-08-21T19:18:24.104Z,73.52
2022-08-21T19:20:55.506Z,73.77
2022-08-21T19:23:29.423Z,74.08
2022-08-21T19:26:00.764Z,74.60
2022-08-21T19:28:31.913Z,75.59
2022-08-21T19:31:05.306Z,76.18
2022-08-21T19:33:39.731Z,76.87
2022-08-21T19:36:08.100Z,77.46
2022-08-21T19:38:36.296Z,78.19
2022-08-21T19:41:06.060Z,79.28
2022-08-21T19:43:41.707Z,79.98
2022-08-21T19:46:08.655Z,80.26
2022-08-21T19:48:37.567Z,81.11
2022-08-21T19:51:07.422Z,81.72
2022-08-21T19:53:34.762Z,82.93
2022-08-21T19:56:01.346Z,84.07
2022-08-21T19:58:34.377Z,84.32
2022-08-21T20:01:02.701Z,83.81
2022-08-21T20:03:29.326Z,83.69
2022-08-21T20:05:55.987Z,83.77
2022-08-21T20:08:23.384Z,83.53
2022-08-21T20:10:57.421Z,83.20
2022-08-21T20:13:25.698Z,83.36
2022-08-21T20:15:53.326Z,84.41
2022-08-21T20:18:26.717Z,85.10
2022-08-21T20:20:53.690Z,85.20
2022-08-21T20:23:29.859Z,85.12
2022-08-21T20:25:57.733Z,85.94
2022-08-21T20:28:24.566Z,86.38
2022-08-21T20:30:53.010Z,87.03
2022-08-21T20:33:19.520Z,89.03
2022-08-21T20:35:49.846Z,91.57
2022-08-21T20:38:16.748Z,93.57
2022-08-21T20:40:44.806Z,93.30
2022-08-21T20:43:12.674Z,92.82
2022-08-21T20:45:40.223Z,93.99
2022-08-21T20:48:14.030Z,95.13
2022-08-21T20:50:45.981Z,94.89
2022-08-21T20:53:21.648Z,94.89
2022-08-21T20:55:49.952Z,94.65
2022-08-21T20:58:44.439Z,95.38
2022-08-21T21:01:11.161Z,95.74
2022-08-21T21:03:53.224Z,96.19
2022-08-21T21:06:26.791Z,96.91
2022-08-21T21:08:59.656Z,98.01
2022-08-21T21:11:33.718Z,100.00
2022-08-21T21:14:10.142Z,100.00
2022-08-21T21:16:50.549Z,100.00
2022-08-21T21:19:37.125Z,100.00
2022-08-21T21:22:13.040Z,100.00
2022-08-21T21:25:08.076Z,100.00
2022-08-21T21:27:48.940Z,100.00
2022-08-21T21:30:16.172Z,100.00
2022-08-21T21:32:42.704Z,100.00
2022-08-21T21:35:13.633Z,100.00
2022-08-21T21:37:50.508Z,100.00
2022-08-21T21:40:42.711Z,100.00
2022-08-21T21:43:28.818Z,100.00
2022-08-21T21:46:26.344Z,100.00
2022-08-21T21:48:55.579Z,100.00
2022-08-21T21:51:43.544Z,100.00
2022-08-21T21:54:42.720Z,100.00
2022-08-21T21:57:17.364Z,100.00
2022-08-21T21:59:44.091Z,100.00
2022-08-21T22:02:10.498Z,100.00
2022-08-21T22:05:12.508Z,100.00
2022-08-21T22:07:47.439Z,100.00
2022-08-21T22:13:27.195Z,100.00
2022-08-21T22:15:55.164Z,100.00
2022-08-21T22:18:28.417Z,100.00
2022-08-21T22:21:24.215Z,100.00
2022-08-21T22:23:55.644Z,100.00
2022-08-21T22:26:38.157Z,100.00
2022-08-21T22:29:12.820Z,100.00
2022-08-21T22:31:40.816Z,100.00
2022-08-21T22:34:19.466Z,100.00
2022-08-21T22:36:55.226Z,100.00
2022-08-21T22:39:38.989Z,100.00
2022-08-21T22:42:31.212Z,100.00
2022-08-21T22:45:01.094Z,100.00
2022-08-21T22:47:33.909Z,100.00
2022-08-21T22:50:05.445Z,100.00
2022-08-21T22:52:35.752Z,100.00
2022-08-21T22:55:26.056Z,100.00
2022-08-21T22:58:23.739Z,100.00
2022-08-21T23:01:00.056Z,100.00
2022-08-21T23:03:42.976Z,100.00
2022-08-21T23:06:40.398Z,100.00
2022-08-21T23:09:21.201Z,100.00
2022-08-21T23:11:51.007Z,100.00
2022-08-21T23:14:18.436Z,100.00
2022-08-21T23:16:56.671Z,100.00
2022-08-21T23:19:34.459Z,100.00
2022-08-21T23:22:28.407Z,100.00
2022-08-21T23:25:32.035Z,100.00
2022-08-21T23:28:16.722Z,100.00
2022-08-21T23:30:54.537Z,100.00
2022-08-21T23:33:39.441Z,100.00
2022-08-21T23:36:47.860Z,100.00
2022-08-21T23:39:42.259Z,100.00
2022-08-21T23:42:20.844Z,100.00
2022-08-21T23:48:29.304Z,100.00
2022-08-21T23:51:12.214Z,100.00
2022-08-21T23:54:15.851Z,100.00
2022-08-21T23:57:24.931Z,100.00
